sensor_id;sensor_type;location;lat;lon;timestamp;P1;durP1;ratioP1;P2;durP2;ratioP2
10059;SDS011;5069;49.306;8.636;2023-03-11T00:00:27;1.30;;;0.70;;
10059;SDS011;5069;49.306;8.636;2023-03-11T00:03:30;1.00;;;0.50;;
10059;SDS011;5069;49.306;8.636;2023-03-11T00:06:33;1.77;;;0.60;;
10059;SDS011;5069;49.306;8.636;2023-03-11T00:09:35;1.90;;;0.53;;
10059;SDS011;5069;49.306;8.636;2023-03-11T00:12:37;2.20;;;0.60;;
10059;SDS011;5069;49.306;8.636;2023-03-11T00:15:38;1.83;;;0.60;;
10059;SDS011;5069;49.306;8.636;2023-03-11T00:18:40;0.93;;;0.70;;
10059;SDS011;5069;49.306;8.636;2023-03-11T00:21:42;0.60;;;0.60;;
10059;SDS011;5069;49.306;8.636;2023-03-11T00:24:43;0.70;;;0.70;;
10059;SDS011;5069;49.306;8.636;2023-03-11T00:27:44;2.67;;;0.80;;
10059;SDS011;5069;49.306;8.636;2023-03-11T00:30:46;1.00;;;0.60;;
10059;SDS011;5069;49.306;8.636;2023-03-11T00:33:48;2.10;;;0.60;;
10059;SDS011;5069;49.306;8.636;2023-03-11T00:36:49;1.60;;;0.70;;
10059;SDS011;5069;49.306;8.636;2023-03-11T00:39:50;1.17;;;0.70;;
10059;SDS011;5069;49.306;8.636;2023-03-11T00:42:52;3.50;;;0.60;;
10059;SDS011;5069;49.306;8.636;2023-03-11T00:45:53;2.03;;;0.70;;
10059;SDS011;5069;49.306;8.636;2023-03-11T00:48:55;2.77;;;0.70;;
10059;SDS011;5069;49.306;8.636;2023-03-11T00:51:57;3.40;;;0.70;;
10059;SDS011;5069;49.306;8.636;2023-03-11T00:54:58;2.10;;;0.53;;
10059;SDS011;5069;49.306;8.636;2023-03-11T00:58:01;2.70;;;0.70;;
10059;SDS011;5069;49.306;8.636;2023-03-11T01:01:21;1.50;;;0.50;;
10059;SDS011;5069;49.306;8.636;2023-03-11T01:04:22;1.90;;;0.67;;
10059;SDS011;5069;49.306;8.636;2023-03-11T01:07:24;1.50;;;0.67;;
10059;SDS011;5069;49.306;8.636;2023-03-11T01:10:26;2.10;;;0.70;;
10059;SDS011;5069;49.306;8.636;2023-03-11T01:13:28;2.43;;;0.70;;
10059;SDS011;5069;49.306;8.636;2023-03-11T01:16:30;2.03;;;0.70;;
10059;SDS011;5069;49.306;8.636;2023-03-11T01:19:31;2.63;;;0.80;;
10059;SDS011;5069;49.306;8.636;2023-03-11T01:22:33;2.40;;;0.70;;
10059;SDS011;5069;49.306;8.636;2023-03-11T01:25:35;2.47;;;0.67;;
10059;SDS011;5069;49.306;8.636;2023-03-11T01:28:36;2.40;;;0.90;;
10059;SDS011;5069;49.306;8.636;2023-03-11T01:31:38;0.90;;;0.70;;
10059;SDS011;5069;49.306;8.636;2023-03-11T01:34:39;2.43;;;0.70;;
10059;SDS011;5069;49.306;8.636;2023-03-11T01:37:41;1.50;;;0.70;;
10059;SDS011;5069;49.306;8.636;2023-03-11T01:40:44;2.43;;;0.77;;
10059;SDS011;5069;49.306;8.636;2023-03-11T01:43:51;1.30;;;0.70;;
10059;SDS011;5069;49.306;8.636;2023-03-11T01:50:09;2.03;;;0.70;;
10059;SDS011;5069;49.306;8.636;2023-03-11T01:53:13;2.03;;;1.10;;
10059;SDS011;5069;49.306;8.636;2023-03-11T01:56:16;1.57;;;0.87;;
10059;SDS011;5069;49.306;8.636;2023-03-11T01:59:28;3.50;;;1.00;;
10059;SDS011;5069;49.306;8.636;2023-03-11T02:02:40;2.00;;;0.93;;
10059;SDS011;5069;49.306;8.636;2023-03-11T02:05:46;2.97;;;0.80;;
10059;SDS011;5069;49.306;8.636;2023-03-11T02:08:51;1.17;;;0.60;;
10059;SDS011;5069;49.306;8.636;2023-03-11T02:11:54;0.80;;;0.70;;
10059;SDS011;5069;49.306;8.636;2023-03-11T02:14:57;2.43;;;0.93;;
10059;SDS011;5069;49.306;8.636;2023-03-11T02:18:00;1.83;;;1.00;;
10059;SDS011;5069;49.306;8.636;2023-03-11T02:21:12;2.90;;;0.93;;
10059;SDS011;5069;49.306;8.636;2023-03-11T02:24:35;2.53;;;1.00;;
10059;SDS011;5069;49.306;8.636;2023-03-11T02:27:45;1.57;;;0.73;;
10059;SDS011;5069;49.306;8.636;2023-03-11T02:30:51;3.50;;;0.80;;
10059;SDS011;5069;49.306;8.636;2023-03-11T02:33:53;1.13;;;0.83;;
10059;SDS011;5069;49.306;8.636;2023-03-11T02:36:55;4.07;;;1.10;;
10059;SDS011;5069;49.306;8.636;2023-03-11T02:43:30;4.47;;;1.20;;
10059;SDS011;5069;49.306;8.636;2023-03-11T02:46:40;2.47;;;0.80;;
10059;SDS011;5069;49.306;8.636;2023-03-11T02:49:44;3.33;;;1.00;;
10059;SDS011;5069;49.306;8.636;2023-03-11T02:52:49;4.93;;;0.80;;
10059;SDS011;5069;49.306;8.636;2023-03-11T02:55:51;1.40;;;0.77;;
10059;SDS011;5069;49.306;8.636;2023-03-11T02:58:53;3.03;;;1.20;;
10059;SDS011;5069;49.306;8.636;2023-03-11T03:01:54;3.40;;;0.87;;
10059;SDS011;5069;49.306;8.636;2023-03-11T03:04:56;2.07;;;0.97;;
10059;SDS011;5069;49.306;8.636;2023-03-11T03:07:58;2.10;;;0.83;;
10059;SDS011;5069;49.306;8.636;2023-03-11T03:10:59;4.27;;;0.80;;
10059;SDS011;5069;49.306;8.636;2023-03-11T03:14:01;1.57;;;0.70;;
10059;SDS011;5069;49.306;8.636;2023-03-11T03:17:03;2.57;;;1.00;;
10059;SDS011;5069;49.306;8.636;2023-03-11T03:20:05;2.60;;;0.90;;
10059;SDS011;5069;49.306;8.636;2023-03-11T03:23:15;3.30;;;1.00;;
10059;SDS011;5069;49.306;8.636;2023-03-11T03:26:17;2.80;;;0.80;;
10059;SDS011;5069;49.306;8.636;2023-03-11T03:29:22;1.97;;;1.07;;
10059;SDS011;5069;49.306;8.636;2023-03-11T03:32:24;1.87;;;0.73;;
10059;SDS011;5069;49.306;8.636;2023-03-11T03:35:26;1.97;;;1.07;;
10059;SDS011;5069;49.306;8.636;2023-03-11T03:38:43;6.33;;;0.80;;
10059;SDS011;5069;49.306;8.636;2023-03-11T03:41:45;2.83;;;1.10;;
10059;SDS011;5069;49.306;8.636;2023-03-11T03:44:47;4.47;;;1.00;;
10059;SDS011;5069;49.306;8.636;2023-03-11T03:47:48;2.90;;;0.90;;
10059;SDS011;5069;49.306;8.636;2023-03-11T03:50:51;3.23;;;1.00;;
10059;SDS011;5069;49.306;8.636;2023-03-11T03:53:52;3.43;;;1.00;;
10059;SDS011;5069;49.306;8.636;2023-03-11T03:56:55;3.50;;;1.10;;
10059;SDS011;5069;49.306;8.636;2023-03-11T03:59:57;3.20;;;1.10;;
10059;SDS011;5069;49.306;8.636;2023-03-11T04:02:58;3.17;;;1.00;;
10059;SDS011;5069;49.306;8.636;2023-03-11T04:06:20;2.97;;;1.00;;
10059;SDS011;5069;49.306;8.636;2023-03-11T04:09:29;4.30;;;0.87;;
10059;SDS011;5069;49.306;8.636;2023-03-11T04:12:31;1.73;;;1.20;;
10059;SDS011;5069;49.306;8.636;2023-03-11T04:15:33;3.87;;;1.03;;
10059;SDS011;5069;49.306;8.636;2023-03-11T04:18:35;7.93;;;1.20;;
10059;SDS011;5069;49.306;8.636;2023-03-11T04:21:37;6.83;;;1.30;;
10059;SDS011;5069;49.306;8.636;2023-03-11T04:24:39;2.97;;;1.20;;
10059;SDS011;5069;49.306;8.636;2023-03-11T04:27:40;3.37;;;1.37;;
10059;SDS011;5069;49.306;8.636;2023-03-11T04:30:47;5.07;;;1.17;;
10059;SDS011;5069;49.306;8.636;2023-03-11T04:33:49;6.30;;;1.23;;
10059;SDS011;5069;49.306;8.636;2023-03-11T04:36:51;2.87;;;1.07;;
10059;SDS011;5069;49.306;8.636;2023-03-11T04:39:56;4.47;;;1.07;;
10059;SDS011;5069;49.306;8.636;2023-03-11T04:42:58;2.20;;;0.90;;
10059;SDS011;5069;49.306;8.636;2023-03-11T04:46:00;4.30;;;1.13;;
10059;SDS011;5069;49.306;8.636;2023-03-11T04:49:02;4.57;;;1.00;;
10059;SDS011;5069;49.306;8.636;2023-03-11T04:52:04;2.53;;;0.80;;
10059;SDS011;5069;49.306;8.636;2023-03-11T04:55:05;2.30;;;1.17;;
10059;SDS011;5069;49.306;8.636;2023-03-11T04:58:07;6.90;;;1.37;;
10059;SDS011;5069;49.306;8.636;2023-03-11T05:01:11;2.17;;;0.80;;
10059;SDS011;5069;49.306;8.636;2023-03-11T05:04:13;3.43;;;1.00;;
10059;SDS011;5069;49.306;8.636;2023-03-11T05:07:16;6.20;;;1.30;;
10059;SDS011;5069;49.306;8.636;2023-03-11T05:10:19;3.83;;;0.93;;
10059;SDS011;5069;49.306;8.636;2023-03-11T05:13:25;2.37;;;1.07;;
10059;SDS011;5069;49.306;8.636;2023-03-11T05:16:27;1.97;;;1.20;;
10059;SDS011;5069;49.306;8.636;2023-03-11T05:19:29;3.27;;;1.10;;
10059;SDS011;5069;49.306;8.636;2023-03-11T05:22:33;2.63;;;1.20;;
10059;SDS011;5069;49.306;8.636;2023-03-11T05:25:35;2.30;;;1.03;;
10059;SDS011;5069;49.306;8.636;2023-03-11T05:28:38;5.00;;;1.10;;
10059;SDS011;5069;49.306;8.636;2023-03-11T05:31:40;3.53;;;1.03;;
10059;SDS011;5069;49.306;8.636;2023-03-11T05:34:42;3.93;;;1.20;;
10059;SDS011;5069;49.306;8.636;2023-03-11T05:37:44;2.40;;;1.00;;
10059;SDS011;5069;49.306;8.636;2023-03-11T05:40:45;3.13;;;0.80;;
10059;SDS011;5069;49.306;8.636;2023-03-11T05:43:47;4.77;;;1.20;;
10059;SDS011;5069;49.306;8.636;2023-03-11T05:46:49;7.40;;;1.23;;
10059;SDS011;5069;49.306;8.636;2023-03-11T05:49:51;3.30;;;1.50;;
10059;SDS011;5069;49.306;8.636;2023-03-11T05:52:53;6.67;;;1.30;;
10059;SDS011;5069;49.306;8.636;2023-03-11T05:55:56;4.27;;;1.23;;
10059;SDS011;5069;49.306;8.636;2023-03-11T05:59:00;5.70;;;1.40;;
10059;SDS011;5069;49.306;8.636;2023-03-11T06:02:05;6.23;;;1.40;;
10059;SDS011;5069;49.306;8.636;2023-03-11T06:05:07;5.47;;;1.40;;
10059;SDS011;5069;49.306;8.636;2023-03-11T06:08:12;3.13;;;1.20;;
10059;SDS011;5069;49.306;8.636;2023-03-11T06:11:15;7.87;;;1.53;;
10059;SDS011;5069;49.306;8.636;2023-03-11T06:14:17;4.43;;;1.57;;
10059;SDS011;5069;49.306;8.636;2023-03-11T06:17:22;9.13;;;2.00;;
10059;SDS011;5069;49.306;8.636;2023-03-11T06:20:25;3.40;;;1.50;;
10059;SDS011;5069;49.306;8.636;2023-03-11T06:23:27;5.07;;;1.70;;
10059;SDS011;5069;49.306;8.636;2023-03-11T06:26:29;4.83;;;1.40;;
10059;SDS011;5069;49.306;8.636;2023-03-11T06:29:31;5.67;;;1.70;;
10059;SDS011;5069;49.306;8.636;2023-03-11T06:32:32;4.67;;;1.57;;
10059;SDS011;5069;49.306;8.636;2023-03-11T06:35:35;3.57;;;1.60;;
10059;SDS011;5069;49.306;8.636;2023-03-11T06:38:37;3.07;;;1.67;;
10059;SDS011;5069;49.306;8.636;2023-03-11T06:41:38;4.60;;;1.40;;
10059;SDS011;5069;49.306;8.636;2023-03-11T06:44:41;4.40;;;1.80;;
10059;SDS011;5069;49.306;8.636;2023-03-11T06:47:43;3.97;;;1.80;;
10059;SDS011;5069;49.306;8.636;2023-03-11T06:50:51;7.37;;;1.70;;
10059;SDS011;5069;49.306;8.636;2023-03-11T06:53:58;2.83;;;1.53;;
10059;SDS011;5069;49.306;8.636;2023-03-11T06:57:01;4.80;;;1.43;;
10059;SDS011;5069;49.306;8.636;2023-03-11T07:00:03;3.57;;;1.47;;
10059;SDS011;5069;49.306;8.636;2023-03-11T07:03:09;4.23;;;1.80;;
10059;SDS011;5069;49.306;8.636;2023-03-11T07:06:15;4.40;;;1.80;;
10059;SDS011;5069;49.306;8.636;2023-03-11T07:09:21;5.07;;;2.03;;
10059;SDS011;5069;49.306;8.636;2023-03-11T07:12:25;3.27;;;2.13;;
10059;SDS011;5069;49.306;8.636;2023-03-11T07:15:27;4.10;;;1.70;;
10059;SDS011;5069;49.306;8.636;2023-03-11T07:18:29;2.90;;;1.53;;
10059;SDS011;5069;49.306;8.636;2023-03-11T07:21:31;4.43;;;1.60;;
10059;SDS011;5069;49.306;8.636;2023-03-11T07:24:33;5.93;;;1.90;;
10059;SDS011;5069;49.306;8.636;2023-03-11T07:27:34;4.27;;;1.97;;
10059;SDS011;5069;49.306;8.636;2023-03-11T07:30:37;5.30;;;2.07;;
10059;SDS011;5069;49.306;8.636;2023-03-11T07:33:39;5.17;;;2.10;;
10059;SDS011;5069;49.306;8.636;2023-03-11T07:36:41;6.90;;;1.97;;
10059;SDS011;5069;49.306;8.636;2023-03-11T07:39:42;4.13;;;1.80;;
10059;SDS011;5069;49.306;8.636;2023-03-11T07:42:44;3.40;;;1.60;;
10059;SDS011;5069;49.306;8.636;2023-03-11T07:45:45;4.23;;;1.70;;
10059;SDS011;5069;49.306;8.636;2023-03-11T07:48:47;5.07;;;1.63;;
10059;SDS011;5069;49.306;8.636;2023-03-11T07:51:50;7.63;;;1.80;;
10059;SDS011;5069;49.306;8.636;2023-03-11T07:54:51;3.87;;;1.70;;
10059;SDS011;5069;49.306;8.636;2023-03-11T07:57:53;3.27;;;1.17;;
10059;SDS011;5069;49.306;8.636;2023-03-11T08:00:54;10.50;;;1.63;;
10059;SDS011;5069;49.306;8.636;2023-03-11T08:03:57;6.73;;;1.77;;
10059;SDS011;5069;49.306;8.636;2023-03-11T08:06:59;4.73;;;1.50;;
10059;SDS011;5069;49.306;8.636;2023-03-11T08:10:00;8.43;;;1.63;;
10059;SDS011;5069;49.306;8.636;2023-03-11T08:13:02;6.87;;;1.40;;
10059;SDS011;5069;49.306;8.636;2023-03-11T08:16:04;7.07;;;1.83;;
10059;SDS011;5069;49.306;8.636;2023-03-11T08:19:09;4.53;;;1.40;;
10059;SDS011;5069;49.306;8.636;2023-03-11T08:22:12;8.23;;;2.27;;
10059;SDS011;5069;49.306;8.636;2023-03-11T08:25:13;5.53;;;1.23;;
10059;SDS011;5069;49.306;8.636;2023-03-11T08:28:15;4.63;;;1.37;;
10059;SDS011;5069;49.306;8.636;2023-03-11T08:31:17;4.47;;;1.87;;
10059;SDS011;5069;49.306;8.636;2023-03-11T08:34:21;4.63;;;1.60;;
10059;SDS011;5069;49.306;8.636;2023-03-11T08:37:22;5.47;;;1.40;;
10059;SDS011;5069;49.306;8.636;2023-03-11T08:40:24;5.03;;;1.60;;
10059;SDS011;5069;49.306;8.636;2023-03-11T08:43:26;7.30;;;1.67;;
10059;SDS011;5069;49.306;8.636;2023-03-11T08:46:32;5.60;;;1.60;;
10059;SDS011;5069;49.306;8.636;2023-03-11T08:49:36;8.30;;;2.83;;
10059;SDS011;5069;49.306;8.636;2023-03-11T08:52:38;7.50;;;1.87;;
10059;SDS011;5069;49.306;8.636;2023-03-11T08:55:39;7.20;;;1.50;;
10059;SDS011;5069;49.306;8.636;2023-03-11T08:58:41;7.43;;;1.50;;
10059;SDS011;5069;49.306;8.636;2023-03-11T09:01:43;9.77;;;1.70;;
10059;SDS011;5069;49.306;8.636;2023-03-11T09:04:44;5.07;;;1.20;;
10059;SDS011;5069;49.306;8.636;2023-03-11T09:07:46;4.57;;;1.37;;
10059;SDS011;5069;49.306;8.636;2023-03-11T09:10:47;5.10;;;1.30;;
10059;SDS011;5069;49.306;8.636;2023-03-11T09:13:48;6.10;;;1.77;;
10059;SDS011;5069;49.306;8.636;2023-03-11T09:16:51;4.17;;;1.40;;
10059;SDS011;5069;49.306;8.636;2023-03-11T09:19:52;10.10;;;1.50;;
10059;SDS011;5069;49.306;8.636;2023-03-11T09:22:53;4.90;;;1.50;;
10059;SDS011;5069;49.306;8.636;2023-03-11T09:25:55;5.43;;;1.80;;
10059;SDS011;5069;49.306;8.636;2023-03-11T09:28:56;6.23;;;1.50;;
10059;SDS011;5069;49.306;8.636;2023-03-11T09:31:58;7.40;;;1.33;;
10059;SDS011;5069;49.306;8.636;2023-03-11T09:34:59;5.53;;;1.60;;
10059;SDS011;5069;49.306;8.636;2023-03-11T09:38:01;6.27;;;2.07;;
10059;SDS011;5069;49.306;8.636;2023-03-11T09:44:30;4.00;;;1.07;;
10059;SDS011;5069;49.306;8.636;2023-03-11T09:47:37;5.20;;;1.40;;
10059;SDS011;5069;49.306;8.636;2023-03-11T09:50:52;3.47;;;1.33;;
10059;SDS011;5069;49.306;8.636;2023-03-11T09:54:02;4.60;;;1.77;;
10059;SDS011;5069;49.306;8.636;2023-03-11T09:57:05;3.97;;;1.40;;
10059;SDS011;5069;49.306;8.636;2023-03-11T10:00:13;3.70;;;1.23;;
10059;SDS011;5069;49.306;8.636;2023-03-11T10:06:40;4.53;;;1.10;;
10059;SDS011;5069;49.306;8.636;2023-03-11T10:09:50;5.17;;;1.00;;
10059;SDS011;5069;49.306;8.636;2023-03-11T10:12:56;3.07;;;0.93;;
10059;SDS011;5069;49.306;8.636;2023-03-11T10:16:21;4.17;;;1.00;;
10059;SDS011;5069;49.306;8.636;2023-03-11T10:19:34;2.60;;;1.17;;
10059;SDS011;5069;49.306;8.636;2023-03-11T10:26:14;7.30;;;1.53;;
10059;SDS011;5069;49.306;8.636;2023-03-11T10:29:26;3.10;;;1.00;;
10059;SDS011;5069;49.306;8.636;2023-03-11T10:32:36;5.63;;;1.87;;
10059;SDS011;5069;49.306;8.636;2023-03-11T10:35:42;5.90;;;1.20;;
10059;SDS011;5069;49.306;8.636;2023-03-11T10:38:46;3.63;;;0.90;;
10059;SDS011;5069;49.306;8.636;2023-03-11T10:41:59;2.93;;;1.10;;
10059;SDS011;5069;49.306;8.636;2023-03-11T10:45:03;4.17;;;1.33;;
10059;SDS011;5069;49.306;8.636;2023-03-11T10:48:11;2.87;;;1.13;;
10059;SDS011;5069;49.306;8.636;2023-03-11T10:51:15;2.73;;;1.20;;
10059;SDS011;5069;49.306;8.636;2023-03-11T10:54:27;5.30;;;1.50;;
10059;SDS011;5069;49.306;8.636;2023-03-11T10:57:50;6.30;;;1.30;;
10059;SDS011;5069;49.306;8.636;2023-03-11T11:01:15;2.47;;;1.10;;
10059;SDS011;5069;49.306;8.636;2023-03-11T11:04:37;3.33;;;1.20;;
10059;SDS011;5069;49.306;8.636;2023-03-11T11:07:40;5.73;;;1.90;;
10059;SDS011;5069;49.306;8.636;2023-03-11T11:13:56;2.50;;;0.90;;
10059;SDS011;5069;49.306;8.636;2023-03-11T11:16:58;3.77;;;0.90;;
10059;SDS011;5069;49.306;8.636;2023-03-11T11:20:00;2.47;;;0.97;;
10059;SDS011;5069;49.306;8.636;2023-03-11T11:23:23;3.63;;;1.10;;
10059;SDS011;5069;49.306;8.636;2023-03-11T11:26:27;3.53;;;1.20;;
10059;SDS011;5069;49.306;8.636;2023-03-11T11:29:28;2.97;;;0.80;;
10059;SDS011;5069;49.306;8.636;2023-03-11T11:32:29;5.67;;;1.10;;
10059;SDS011;5069;49.306;8.636;2023-03-11T11:35:31;3.67;;;1.20;;
10059;SDS011;5069;49.306;8.636;2023-03-11T11:38:32;3.23;;;1.00;;
10059;SDS011;5069;49.306;8.636;2023-03-11T11:41:34;3.17;;;1.10;;
10059;SDS011;5069;49.306;8.636;2023-03-11T11:44:36;2.93;;;1.07;;
10059;SDS011;5069;49.306;8.636;2023-03-11T11:47:39;1.73;;;0.73;;
10059;SDS011;5069;49.306;8.636;2023-03-11T11:50:54;3.87;;;0.80;;
10059;SDS011;5069;49.306;8.636;2023-03-11T11:54:07;3.03;;;1.20;;
10059;SDS011;5069;49.306;8.636;2023-03-11T11:57:31;2.13;;;0.77;;
10059;SDS011;5069;49.306;8.636;2023-03-11T12:00:35;2.80;;;0.80;;
10059;SDS011;5069;49.306;8.636;2023-03-11T12:07:02;5.47;;;1.10;;
10059;SDS011;5069;49.306;8.636;2023-03-11T12:16:51;1.60;;;0.80;;
10059;SDS011;5069;49.306;8.636;2023-03-11T12:26:56;3.77;;;0.83;;
10059;SDS011;5069;49.306;8.636;2023-03-11T12:30:04;2.57;;;1.10;;
10059;SDS011;5069;49.306;8.636;2023-03-11T12:33:16;2.83;;;0.90;;
10059;SDS011;5069;49.306;8.636;2023-03-11T12:36:25;5.23;;;1.27;;
10059;SDS011;5069;49.306;8.636;2023-03-11T12:39:31;2.20;;;0.80;;
10059;SDS011;5069;49.306;8.636;2023-03-11T12:42:37;3.17;;;1.03;;
10059;SDS011;5069;49.306;8.636;2023-03-11T12:45:47;5.03;;;1.00;;
10059;SDS011;5069;49.306;8.636;2023-03-11T12:49:08;2.50;;;0.90;;
10059;SDS011;5069;49.306;8.636;2023-03-11T12:58:25;3.00;;;1.00;;
10059;SDS011;5069;49.306;8.636;2023-03-11T13:08:36;3.97;;;1.13;;
10059;SDS011;5069;49.306;8.636;2023-03-11T13:11:45;2.30;;;1.00;;
10059;SDS011;5069;49.306;8.636;2023-03-11T13:14:49;3.37;;;0.90;;
10059;SDS011;5069;49.306;8.636;2023-03-11T13:18:25;2.87;;;0.90;;
10059;SDS011;5069;49.306;8.636;2023-03-11T13:27:33;2.73;;;1.20;;
10059;SDS011;5069;49.306;8.636;2023-03-11T13:30:44;5.67;;;1.33;;
10059;SDS011;5069;49.306;8.636;2023-03-11T13:34:12;2.77;;;1.20;;
10059;SDS011;5069;49.306;8.636;2023-03-11T13:37:34;2.40;;;0.80;;
10059;SDS011;5069;49.306;8.636;2023-03-11T13:41:12;4.30;;;1.10;;
10059;SDS011;5069;49.306;8.636;2023-03-11T13:47:19;4.37;;;1.87;;
10059;SDS011;5069;49.306;8.636;2023-03-11T13:50:23;3.17;;;0.80;;
10059;SDS011;5069;49.306;8.636;2023-03-11T13:53:38;5.03;;;1.10;;
10059;SDS011;5069;49.306;8.636;2023-03-11T13:56:46;1.77;;;1.00;;
10059;SDS011;5069;49.306;8.636;2023-03-11T13:59:54;2.23;;;1.10;;
10059;SDS011;5069;49.306;8.636;2023-03-11T14:03:00;1.67;;;0.80;;
10059;SDS011;5069;49.306;8.636;2023-03-11T14:06:05;5.67;;;1.13;;
10059;SDS011;5069;49.306;8.636;2023-03-11T14:09:14;3.07;;;0.80;;
10059;SDS011;5069;49.306;8.636;2023-03-11T14:12:19;2.70;;;1.17;;
10059;SDS011;5069;49.306;8.636;2023-03-11T14:15:22;3.07;;;1.00;;
10059;SDS011;5069;49.306;8.636;2023-03-11T14:21:33;2.00;;;1.07;;
10059;SDS011;5069;49.306;8.636;2023-03-11T14:24:35;2.87;;;1.00;;
10059;SDS011;5069;49.306;8.636;2023-03-11T14:27:38;2.83;;;1.10;;
10059;SDS011;5069;49.306;8.636;2023-03-11T14:30:55;4.37;;;1.30;;
10059;SDS011;5069;49.306;8.636;2023-03-11T14:34:00;2.60;;;0.93;;
10059;SDS011;5069;49.306;8.636;2023-03-11T14:37:24;3.43;;;1.07;;
10059;SDS011;5069;49.306;8.636;2023-03-11T14:40:34;4.50;;;1.30;;
10059;SDS011;5069;49.306;8.636;2023-03-11T14:43:43;4.97;;;1.10;;
10059;SDS011;5069;49.306;8.636;2023-03-11T14:46:49;4.37;;;1.10;;
10059;SDS011;5069;49.306;8.636;2023-03-11T14:49:52;0.90;;;0.73;;
10059;SDS011;5069;49.306;8.636;2023-03-11T14:56:18;3.33;;;1.30;;
10059;SDS011;5069;49.306;8.636;2023-03-11T14:59:24;3.00;;;1.30;;
10059;SDS011;5069;49.306;8.636;2023-03-11T15:02:36;2.60;;;1.40;;
10059;SDS011;5069;49.306;8.636;2023-03-11T15:05:45;4.97;;;1.73;;
10059;SDS011;5069;49.306;8.636;2023-03-11T15:08:57;3.97;;;1.33;;
10059;SDS011;5069;49.306;8.636;2023-03-11T15:12:05;4.53;;;1.43;;
10059;SDS011;5069;49.306;8.636;2023-03-11T15:15:21;3.30;;;1.50;;
10059;SDS011;5069;49.306;8.636;2023-03-11T15:18:24;5.37;;;1.60;;
10059;SDS011;5069;49.306;8.636;2023-03-11T15:21:29;3.10;;;1.67;;
10059;SDS011;5069;49.306;8.636;2023-03-11T15:24:31;5.40;;;1.40;;
10059;SDS011;5069;49.306;8.636;2023-03-11T15:27:35;2.57;;;1.40;;
10059;SDS011;5069;49.306;8.636;2023-03-11T15:30:38;7.17;;;1.30;;
10059;SDS011;5069;49.306;8.636;2023-03-11T15:33:40;2.13;;;1.40;;
10059;SDS011;5069;49.306;8.636;2023-03-11T15:39:49;4.00;;;1.43;;
10059;SDS011;5069;49.306;8.636;2023-03-11T15:46:15;2.57;;;1.50;;
10059;SDS011;5069;49.306;8.636;2023-03-11T15:49:16;4.37;;;1.40;;
10059;SDS011;5069;49.306;8.636;2023-03-11T15:52:18;3.47;;;1.70;;
10059;SDS011;5069;49.306;8.636;2023-03-11T15:55:21;5.30;;;1.37;;
10059;SDS011;5069;49.306;8.636;2023-03-11T15:58:23;2.77;;;1.33;;
10059;SDS011;5069;49.306;8.636;2023-03-11T16:01:25;4.67;;;1.43;;
10059;SDS011;5069;49.306;8.636;2023-03-11T16:04:29;7.17;;;1.73;;
10059;SDS011;5069;49.306;8.636;2023-03-11T16:07:30;4.80;;;1.67;;
10059;SDS011;5069;49.306;8.636;2023-03-11T16:10:40;2.83;;;1.40;;
10059;SDS011;5069;49.306;8.636;2023-03-11T16:13:42;2.57;;;1.30;;
10059;SDS011;5069;49.306;8.636;2023-03-11T16:16:44;2.73;;;1.50;;
10059;SDS011;5069;49.306;8.636;2023-03-11T16:19:46;4.63;;;1.43;;
10059;SDS011;5069;49.306;8.636;2023-03-11T16:22:51;3.00;;;1.23;;
10059;SDS011;5069;49.306;8.636;2023-03-11T16:25:58;4.97;;;1.27;;
10059;SDS011;5069;49.306;8.636;2023-03-11T16:29:02;3.67;;;1.57;;
10059;SDS011;5069;49.306;8.636;2023-03-11T16:32:19;2.53;;;1.10;;
10059;SDS011;5069;49.306;8.636;2023-03-11T16:35:21;1.73;;;1.43;;
10059;SDS011;5069;49.306;8.636;2023-03-11T16:38:22;3.87;;;1.47;;
10059;SDS011;5069;49.306;8.636;2023-03-11T16:41:24;4.50;;;2.03;;
10059;SDS011;5069;49.306;8.636;2023-03-11T16:44:25;4.63;;;1.53;;
10059;SDS011;5069;49.306;8.636;2023-03-11T16:47:27;3.00;;;1.27;;
10059;SDS011;5069;49.306;8.636;2023-03-11T16:50:28;3.57;;;1.57;;
10059;SDS011;5069;49.306;8.636;2023-03-11T16:53:30;4.87;;;1.30;;
10059;SDS011;5069;49.306;8.636;2023-03-11T16:56:31;3.70;;;1.50;;
10059;SDS011;5069;49.306;8.636;2023-03-11T16:59:34;4.10;;;1.77;;
10059;SDS011;5069;49.306;8.636;2023-03-11T17:02:36;7.17;;;3.27;;
10059;SDS011;5069;49.306;8.636;2023-03-11T17:05:38;6.87;;;3.00;;
10059;SDS011;5069;49.306;8.636;2023-03-11T17:08:40;4.73;;;1.70;;
10059;SDS011;5069;49.306;8.636;2023-03-11T17:11:41;2.80;;;1.23;;
10059;SDS011;5069;49.306;8.636;2023-03-11T17:14:43;2.70;;;1.50;;
10059;SDS011;5069;49.306;8.636;2023-03-11T17:17:46;2.40;;;1.20;;
10059;SDS011;5069;49.306;8.636;2023-03-11T17:20:48;3.23;;;1.27;;
10059;SDS011;5069;49.306;8.636;2023-03-11T17:23:49;4.30;;;1.37;;
10059;SDS011;5069;49.306;8.636;2023-03-11T17:26:51;3.40;;;1.40;;
10059;SDS011;5069;49.306;8.636;2023-03-11T17:29:53;6.27;;;1.30;;
10059;SDS011;5069;49.306;8.636;2023-03-11T17:32:54;7.97;;;1.30;;
10059;SDS011;5069;49.306;8.636;2023-03-11T17:36:02;6.37;;;1.70;;
10059;SDS011;5069;49.306;8.636;2023-03-11T17:39:07;4.67;;;1.83;;
10059;SDS011;5069;49.306;8.636;2023-03-11T17:42:08;2.73;;;1.40;;
10059;SDS011;5069;49.306;8.636;2023-03-11T17:45:11;5.13;;;1.40;;
10059;SDS011;5069;49.306;8.636;2023-03-11T17:48:13;4.67;;;1.37;;
10059;SDS011;5069;49.306;8.636;2023-03-11T17:51:15;4.30;;;2.00;;
10059;SDS011;5069;49.306;8.636;2023-03-11T17:54:18;2.97;;;1.40;;
10059;SDS011;5069;49.306;8.636;2023-03-11T17:57:20;4.80;;;1.73;;
10059;SDS011;5069;49.306;8.636;2023-03-11T18:00:22;3.80;;;1.80;;
10059;SDS011;5069;49.306;8.636;2023-03-11T18:03:24;4.23;;;2.13;;
10059;SDS011;5069;49.306;8.636;2023-03-11T18:06:26;6.00;;;1.80;;
10059;SDS011;5069;49.306;8.636;2023-03-11T18:09:28;2.83;;;1.57;;
10059;SDS011;5069;49.306;8.636;2023-03-11T18:12:29;5.33;;;2.07;;
10059;SDS011;5069;49.306;8.636;2023-03-11T18:15:31;5.37;;;1.90;;
10059;SDS011;5069;49.306;8.636;2023-03-11T18:18:33;5.53;;;1.90;;
10059;SDS011;5069;49.306;8.636;2023-03-11T18:21:35;3.83;;;2.03;;
10059;SDS011;5069;49.306;8.636;2023-03-11T18:24:36;5.90;;;2.00;;
10059;SDS011;5069;49.306;8.636;2023-03-11T18:27:38;4.90;;;2.10;;
10059;SDS011;5069;49.306;8.636;2023-03-11T18:30:40;8.53;;;2.60;;
10059;SDS011;5069;49.306;8.636;2023-03-11T18:33:43;5.60;;;2.97;;
10059;SDS011;5069;49.306;8.636;2023-03-11T18:36:48;6.43;;;3.20;;
10059;SDS011;5069;49.306;8.636;2023-03-11T18:39:50;4.43;;;2.60;;
10059;SDS011;5069;49.306;8.636;2023-03-11T18:42:52;4.60;;;2.40;;
10059;SDS011;5069;49.306;8.636;2023-03-11T18:45:53;8.30;;;3.77;;
10059;SDS011;5069;49.306;8.636;2023-03-11T18:48:55;6.10;;;3.80;;
10059;SDS011;5069;49.306;8.636;2023-03-11T18:51:58;8.17;;;4.47;;
10059;SDS011;5069;49.306;8.636;2023-03-11T18:54:59;10.10;;;4.47;;
10059;SDS011;5069;49.306;8.636;2023-03-11T18:58:01;8.60;;;4.37;;
10059;SDS011;5069;49.306;8.636;2023-03-11T19:01:06;7.13;;;4.70;;
10059;SDS011;5069;49.306;8.636;2023-03-11T19:04:14;9.33;;;5.30;;
10059;SDS011;5069;49.306;8.636;2023-03-11T19:07:15;7.60;;;4.90;;
10059;SDS011;5069;49.306;8.636;2023-03-11T19:10:17;12.53;;;7.53;;
10059;SDS011;5069;49.306;8.636;2023-03-11T19:13:20;9.13;;;7.17;;
10059;SDS011;5069;49.306;8.636;2023-03-11T19:16:23;14.60;;;9.67;;
10059;SDS011;5069;49.306;8.636;2023-03-11T19:19:25;11.67;;;7.87;;
10059;SDS011;5069;49.306;8.636;2023-03-11T19:22:26;11.77;;;7.47;;
10059;SDS011;5069;49.306;8.636;2023-03-11T19:25:28;12.17;;;7.47;;
10059;SDS011;5069;49.306;8.636;2023-03-11T19:28:29;14.60;;;7.77;;
10059;SDS011;5069;49.306;8.636;2023-03-11T19:31:31;12.33;;;7.30;;
10059;SDS011;5069;49.306;8.636;2023-03-11T19:34:32;13.70;;;7.73;;
10059;SDS011;5069;49.306;8.636;2023-03-11T19:37:34;18.13;;;9.40;;
10059;SDS011;5069;49.306;8.636;2023-03-11T19:40:35;14.03;;;7.13;;
10059;SDS011;5069;49.306;8.636;2023-03-11T19:43:37;8.27;;;5.43;;
10059;SDS011;5069;49.306;8.636;2023-03-11T19:46:39;7.83;;;4.97;;
10059;SDS011;5069;49.306;8.636;2023-03-11T19:49:40;7.50;;;4.10;;
10059;SDS011;5069;49.306;8.636;2023-03-11T19:52:42;7.50;;;3.87;;
10059;SDS011;5069;49.306;8.636;2023-03-11T19:55:44;7.33;;;3.73;;
10059;SDS011;5069;49.306;8.636;2023-03-11T19:58:46;5.80;;;3.93;;